createdAt,value
2022-11-16T00:04:07.073Z,9.59
2022-11-16T00:09:26.874Z,9.63
2022-11-16T00:14:32.486Z,9.69
2022-11-16T00:19:35.260Z,9.55
2022-11-16T00:24:41.035Z,9.25
2022-11-16T00:29:45.087Z,8.20
2022-11-16T00:34:47.649Z,8.66
2022-11-16T00:39:50.237Z,9.14
2022-11-16T00:44:54.162Z,8.14
2022-11-16T00:49:56.793Z,9.12
2022-11-16T00:54:59.445Z,9.15
2022-11-16T01:00:04.204Z,9.36
2022-11-16T01:05:08.052Z,9.47
2022-11-16T01:10:13.441Z,8.67
2022-11-16T01:15:18.733Z,8.44
2022-11-16T01:20:23.545Z,8.31
2022-11-16T01:25:26.228Z,9.07
2022-11-16T01:30:30.338Z,9.21
2022-11-16T01:35:32.983Z,9.25
2022-11-16T01:40:37.935Z,9.15
2022-11-16T01:45:42.397Z,9.37
2022-11-16T01:50:46.347Z,9.36
2022-11-16T01:55:50.253Z,9.31
2022-11-16T02:00:56.706Z,9.56
2022-11-16T02:06:16.481Z,9.67
2022-11-16T02:11:38.557Z,9.60
2022-11-16T02:16:52.393Z,9.62
2022-11-16T02:22:07.674Z,9.56
2022-11-16T02:27:31.369Z,9.54
2022-11-16T02:32:40.405Z,9.31
2022-11-16T02:37:48.215Z,9.24
2022-11-16T02:42:54.915Z,8.96
2022-11-16T02:48:04.177Z,8.59
2022-11-16T02:53:06.814Z,8.83
2022-11-16T02:58:12.312Z,8.99
2022-11-16T03:03:25.166Z,8.86
2022-11-16T03:08:31.676Z,8.57
2022-11-16T03:13:36.378Z,8.64
2022-11-16T03:18:41.691Z,8.87
2022-11-16T03:23:46.370Z,8.85
2022-11-16T03:28:56.471Z,8.96
2022-11-16T03:34:06.144Z,8.95
2022-11-16T03:39:13.602Z,8.89
2022-11-16T03:44:18.359Z,8.28
2022-11-16T03:49:24.066Z,8.73
2022-11-16T03:54:27.151Z,8.92
2022-11-16T03:59:29.856Z,8.32
2022-11-16T04:04:51.482Z,8.65
2022-11-16T04:10:10.765Z,8.73
2022-11-16T04:15:31.075Z,8.53
2022-11-16T04:20:52.552Z,7.67
2022-11-16T04:25:55.343Z,8.26
2022-11-16T04:31:19.315Z,8.16
2022-11-16T04:36:40.584Z,7.78
2022-11-16T04:42:01.053Z,8.07
2022-11-16T04:47:09.520Z,8.00
2022-11-16T04:52:13.496Z,7.68
2022-11-16T04:57:16.143Z,7.84
2022-11-16T05:02:18.793Z,7.16
2022-11-16T05:07:22.809Z,7.02
2022-11-16T05:12:27.799Z,7.00
2022-11-16T05:17:30.553Z,7.33
2022-11-16T05:22:35.031Z,7.06
2022-11-16T05:27:37.875Z,6.70
2022-11-16T05:32:40.483Z,7.18
2022-11-16T05:37:44.457Z,7.27
2022-11-16T05:42:47.017Z,7.67
2022-11-16T05:47:49.656Z,7.42
2022-11-16T05:52:53.564Z,8.20
2022-11-16T05:57:56.177Z,8.21
2022-11-16T06:02:58.957Z,8.55
2022-11-16T06:08:02.950Z,8.14
2022-11-16T06:13:05.562Z,8.36
2022-11-16T06:18:09.212Z,8.31
2022-11-16T06:23:16.336Z,8.57
2022-11-16T06:28:19.075Z,8.20
2022-11-16T06:33:21.871Z,7.95
2022-11-16T06:38:27.081Z,7.57
2022-11-16T06:43:29.720Z,8.13
2022-11-16T06:48:33.600Z,8.01
2022-11-16T06:53:39.021Z,7.34
2022-11-16T06:58:42.928Z,7.74
2022-11-16T07:03:45.896Z,8.43
2022-11-16T07:08:49.971Z,8.48
2022-11-16T07:13:53.088Z,8.68
2022-11-16T07:18:59.176Z,8.22
2022-11-16T07:24:03.135Z,8.42
2022-11-16T07:29:06.046Z,7.65
2022-11-16T07:34:08.875Z,8.04
2022-11-16T07:39:13.161Z,7.71
2022-11-16T07:44:16.039Z,7.83
2022-11-16T07:49:20.200Z,8.25
2022-11-16T07:54:25.140Z,8.75
2022-11-16T07:59:28.409Z,8.36
2022-11-16T08:04:31.005Z,8.61
2022-11-16T08:09:37.972Z,8.47
2022-11-16T08:14:40.676Z,8.52
2022-11-16T08:19:43.339Z,8.63
2022-11-16T08:24:47.440Z,7.36
2022-11-16T08:29:50.157Z,7.63
2022-11-16T08:34:52.779Z,8.28
2022-11-16T08:39:56.805Z,7.96
2022-11-16T08:44:59.448Z,8.45
2022-11-16T08:50:02.085Z,7.48
2022-11-16T08:55:06.960Z,8.40
2022-11-16T09:00:11.206Z,8.11
2022-11-16T09:05:13.814Z,8.98
2022-11-16T09:10:19.037Z,9.00
2022-11-16T09:15:21.723Z,9.29
2022-11-16T09:20:24.611Z,9.75
2022-11-16T09:25:28.728Z,9.16
2022-11-16T09:30:31.502Z,9.43
2022-11-16T09:35:36.237Z,9.16
2022-11-16T09:40:44.598Z,8.96
2022-11-16T09:45:53.811Z,9.42
2022-11-16T09:51:01.774Z,8.71
2022-11-16T09:56:08.280Z,9.65
2022-11-16T10:01:22.312Z,9.65
2022-11-16T10:06:33.970Z,9.84
2022-11-16T10:11:50.151Z,10.62
2022-11-16T10:17:01.269Z,10.35
2022-11-16T10:22:11.365Z,9.16
2022-11-16T10:27:47.268Z,9.41
2022-11-16T10:32:54.655Z,9.03
2022-11-16T10:37:59.459Z,9.02
2022-11-16T10:43:11.345Z,9.55
2022-11-16T10:48:23.970Z,9.73
2022-11-16T10:53:29.508Z,9.52
2022-11-16T10:58:50.597Z,9.65
2022-11-16T11:03:53.218Z,8.94
2022-11-16T11:08:55.920Z,8.90
2022-11-16T11:14:06.473Z,8.98
2022-11-16T11:19:19.767Z,9.56
2022-11-16T11:24:44.295Z,8.96
2022-11-16T11:29:53.494Z,8.61
2022-11-16T11:35:00.073Z,8.75
2022-11-16T11:40:08.431Z,8.78
2022-11-16T11:45:16.346Z,9.03
2022-11-16T11:50:21.978Z,9.55
2022-11-16T11:55:24.631Z,8.24
2022-11-16T12:00:37.631Z,8.37
2022-11-16T12:05:58.393Z,8.56
2022-11-16T12:11:07.478Z,8.78
2022-11-16T12:16:20.138Z,8.89
2022-11-16T12:21:36.948Z,8.61
2022-11-16T12:26:52.596Z,8.90
2022-11-16T12:32:17.467Z,8.88
2022-11-16T12:37:24.420Z,8.82
2022-11-16T12:42:40.371Z,8.62
2022-11-16T12:48:01.249Z,8.31
2022-11-16T12:53:20.037Z,8.55
2022-11-16T12:58:32.492Z,8.04
2022-11-16T13:03:43.135Z,8.80
2022-11-16T13:08:51.993Z,8.83
2022-11-16T13:13:59.263Z,9.09
2022-11-16T13:19:06.593Z,8.93
2022-11-16T13:24:25.892Z,9.25
2022-11-16T13:29:35.088Z,9.53
2022-11-16T13:34:41.119Z,8.59
2022-11-16T13:40:15.747Z,9.11
2022-11-16T13:45:21.696Z,9.16
2022-11-16T13:50:36.064Z,9.20
2022-11-16T13:55:46.223Z,9.45
2022-11-16T14:00:58.601Z,9.38
2022-11-16T14:06:02.753Z,9.01
2022-11-16T14:11:06.734Z,8.59
2022-11-16T14:16:48.171Z,8.38
2022-11-16T14:21:58.824Z,8.45
2022-11-16T14:27:10.434Z,8.97
2022-11-16T14:32:22.488Z,9.68
2022-11-16T14:37:39.816Z,9.59
2022-11-16T14:43:15.229Z,9.03
2022-11-16T14:48:16.735Z,8.68
2022-11-16T14:53:21.067Z,8.86
2022-11-16T14:58:24.485Z,8.88
2022-11-16T15:03:31.216Z,9.49
2022-11-16T15:08:42.491Z,8.58
2022-11-16T15:13:46.794Z,9.17
2022-11-16T15:19:00.732Z,9.33
2022-11-16T15:24:29.472Z,9.32
2022-11-16T15:29:28.110Z,9.82
2022-11-16T15:34:32.201Z,9.82
2022-11-16T15:39:37.157Z,9.76
2022-11-16T15:44:39.925Z,9.11
2022-11-16T15:49:44.105Z,8.90
2022-11-16T15:55:04.959Z,8.83
2022-11-16T16:00:22.707Z,9.69
2022-11-16T16:05:39.867Z,8.78
2022-11-16T16:10:47.702Z,9.41
2022-11-16T16:16:20.867Z,8.53
2022-11-16T16:21:24.269Z,8.85
2022-11-16T16:26:28.259Z,9.02
2022-11-16T16:31:30.958Z,8.78
2022-11-16T16:36:33.494Z,8.47
2022-11-16T16:41:37.441Z,9.15
2022-11-16T16:46:42.497Z,8.58
2022-11-16T16:51:45.062Z,8.62
2022-11-16T16:56:49.004Z,8.56
2022-11-16T17:01:52.534Z,8.24
2022-11-16T17:06:55.461Z,7.98
2022-11-16T17:12:02.724Z,8.27
2022-11-16T17:22:58.094Z,8.52
2022-11-16T17:28:02.054Z,9.43
2022-11-16T17:33:04.925Z,9.66
2022-11-16T17:38:07.736Z,9.89
2022-11-16T17:43:11.847Z,9.98
2022-11-16T17:48:14.427Z,9.55
2022-11-16T17:53:17.053Z,9.10
2022-11-16T17:58:21.155Z,9.55
2022-11-16T18:03:27.067Z,9.69
2022-11-16T18:08:29.843Z,9.19
2022-11-16T18:13:34.617Z,9.36
2022-11-16T18:18:38.393Z,9.40
2022-11-16T18:23:41.277Z,8.86
2022-11-16T18:28:46.469Z,9.31
2022-11-16T18:33:50.044Z,9.30
2022-11-16T18:38:52.704Z,8.65
2022-11-16T18:43:58.521Z,8.98
2022-11-16T18:49:01.346Z,8.24
2022-11-16T18:54:04.199Z,8.47
2022-11-16T18:59:09.229Z,8.21
2022-11-16T19:04:11.836Z,8.50
2022-11-16T19:09:14.473Z,8.73
2022-11-16T19:14:19.452Z,8.61
2022-11-16T19:19:22.605Z,8.01
2022-11-16T19:24:25.297Z,8.88
2022-11-16T19:29:29.281Z,9.19
2022-11-16T19:34:34.483Z,8.86
2022-11-16T19:39:37.148Z,8.53
2022-11-16T19:44:41.200Z,8.43
2022-11-16T19:49:43.841Z,8.73
2022-11-16T19:54:46.430Z,8.29
2022-11-16T19:59:50.425Z,7.43
2022-11-16T20:04:53.406Z,7.70
2022-11-16T20:09:57.097Z,7.58
2022-11-16T20:15:02.891Z,7.26
2022-11-16T20:20:06.415Z,7.19
2022-11-16T20:25:10.108Z,7.52
2022-11-16T20:30:26.863Z,7.21
2022-11-16T20:35:30.112Z,7.12
2022-11-16T20:40:32.823Z,7.74
2022-11-16T20:45:36.805Z,8.26
2022-11-16T20:50:39.662Z,7.55
2022-11-16T20:55:42.360Z,7.18
2022-11-16T21:00:46.371Z,7.32
2022-11-16T21:05:52.674Z,7.41
2022-11-16T21:10:56.472Z,7.35
2022-11-16T21:16:02.987Z,8.20
2022-11-16T21:21:07.744Z,6.80
2022-11-16T21:26:14.255Z,7.27
2022-11-16T21:31:20.354Z,6.55
2022-11-16T21:36:24.673Z,6.30
2022-11-16T21:41:29.973Z,6.43
2022-11-16T21:46:34.933Z,6.63
2022-11-16T21:51:38.188Z,6.91
2022-11-16T21:56:40.798Z,7.53
2022-11-16T22:02:03.339Z,7.17
2022-11-16T22:07:23.684Z,7.25
2022-11-16T22:12:26.450Z,6.99
2022-11-16T22:17:31.201Z,6.55
2022-11-16T22:22:34.368Z,6.58
2022-11-16T22:27:58.431Z,6.89
2022-11-16T22:33:02.574Z,7.26
2022-11-16T22:38:05.521Z,6.78
2022-11-16T22:43:08.136Z,6.66
2022-11-16T22:48:13.265Z,6.14
2022-11-16T22:53:15.843Z,6.23
2022-11-16T22:58:18.436Z,5.94
2022-11-16T23:03:22.503Z,6.24
2022-11-16T23:08:25.859Z,6.21
2022-11-16T23:13:46.428Z,5.96
2022-11-16T23:18:50.454Z,5.90
2022-11-16T23:24:18.995Z,6.20
2022-11-16T23:29:21.576Z,6.03
2022-11-16T23:34:25.614Z,5.88
2022-11-16T23:39:28.197Z,6.09
2022-11-16T23:44:30.828Z,5.71
2022-11-16T23:49:34.760Z,5.60
2022-11-16T23:54:37.399Z,5.71
2022-11-16T23:59:40.044Z,5.67
